Time;durP1;ratioP1;P1;durP2;ratioP2;P2;SDS_P1;SDS_P2;PMS_P1;PMS_P2;Temp;Humidity;BMP_temperature;BMP_pressure;BME280_temperature;BME280_humidity;BME280_pressure;Samples;Min_cycle;Max_cycle;Signal;HPM_P1;HPM_P2
2023/08/13 00:00:16;;;;;;;;;;;;;;;;;;1054633;28;4166;-56
2023/08/13 00:00:59;;;;;;;;;;;;;;;;;;1055982;28;1416;-57
2023/08/13 00:01:49;;;;;;;;;;;;;;;;;;1054795;27;4002;-55
2023/08/13 00:02:19;;;;;;;;;;;;;;;;;;1054531;28;4028;-57
2023/08/13 00:02:50;;;;;;;;;;;;;;;;;;1056294;28;1758;-56
2023/08/13 00:03:20;;;;;;;;;;;;;;;;;;1055096;28;3985;-55
2023/08/13 00:03:50;;;;;;;;;;;;;;;;;;1056216;28;1311;-58
2023/08/13 00:04:20;;;;;;;;;;;;;;;;;;1055246;28;3956;-54
2023/08/13 00:04:51;;;;;;;;;;;;;;;;;;1056212;28;2058;-56
2023/08/13 00:05:21;;;;;;;;;;;;;;;;;;1055288;27;3936;-57
2023/08/13 00:05:51;;;;;;;;;;;;;;;;;;1051002;28;2044;-55
2023/08/13 00:06:21;;;;;;;;;;;;;;;;;;1051353;28;4208;-55
2023/08/13 00:06:52;;;;;;;;;;;;;;;;;;1051065;28;1772;-55
2023/08/13 00:07:22;;;;;;;;;;;;;;;;;;1051072;28;4029;-56
2023/08/13 00:07:52;;;;;;;;;;;;;;;;;;1055807;28;1555;-55
2023/08/13 00:08:22;;;;;;;;;;;;;;;;;;1055971;28;3843;-54
2023/08/13 00:08:53;;;;;;;;;;;;;;;;;;1055327;28;1640;-57
2023/08/13 00:09:23;;;;;;;;;;;;;;;;;;1055648;28;3971;-56
2023/08/13 00:09:53;;;;;;;;;;;;;;;;;;1055492;28;1797;-55
2023/08/13 00:10:23;;;;;;;;;;;;;;;;;;1056513;27;3951;-55
2023/08/13 00:10:54;;;;;;;;;;;;;;;;;;1053616;28;2349;-52
2023/08/13 00:11:24;;;;;;;;;;;;;;;;;;1055038;28;4014;-56
2023/08/13 00:11:54;;;;;;;;;;;;;;;;;;1051254;28;1710;-54
2023/08/13 00:12:25;;;;;;;;;;;;;;;;;;1051727;28;3849;-56
2023/08/13 00:12:55;;;;;;;;;;;;;;;;;;1051628;28;2035;-56
2023/08/13 00:13:25;;;;;;;;;;;;;;;;;;1050599;28;4048;-55
2023/08/13 00:13:56;;;;;;;;;;;;;;;;;;1055872;28;1518;-57
2023/08/13 00:14:26;;;;;;;;;;;;;;;;;;1055321;27;3958;-52
2023/08/13 00:14:56;;;;;;;;;;;;;;;;;;1056409;28;1638;-54
2023/08/13 00:15:26;;;;;;;;;;;;;;;;;;1055083;28;3991;-57
2023/08/13 00:15:57;;;;;;;;;;;;;;;;;;1056226;28;1941;-53
2023/08/13 00:16:27;;;;;;;;;;;;;;;;;;1054883;27;4402;-57
2023/08/13 00:16:58;;;;;;;;;;;;;;;;;;1056767;27;2902;-55
2023/08/13 00:17:28;;;;;;;;;;;;;;;;;;1054544;28;4438;-54
2023/08/13 00:17:58;;;;;;;;;;;;;;;;;;1056432;28;1676;-56
2023/08/13 00:18:29;;;;;;;;;;;;;;;;;;1055327;28;3858;-56
2023/08/13 00:18:59;;;;;;;;;;;;;;;;;;1055226;28;2396;-56
2023/08/13 00:19:29;;;;;;;;;;;;;;;;;;1054847;28;3932;-50
2023/08/13 00:19:59;;;;;;;;;;;;;;;;;;1056427;28;1555;-58
2023/08/13 00:20:30;;;;;;;;;;;;;;;;;;1055277;27;3756;-57
2023/08/13 00:21:00;;;;;;;;;;;;;;;;;;1051734;28;1468;-57
2023/08/13 00:21:31;;;;;;;;;;;;;;;;;;1050036;28;4026;-55
2023/08/13 00:22:01;;;;;;;;;;;;;;;;;;1051052;28;1500;-57
2023/08/13 00:22:31;;;;;;;;;;;;;;;;;;1050088;28;4090;-55
2023/08/13 00:23:02;;;;;;;;;;;;;;;;;;1055226;28;1956;-54
2023/08/13 00:23:32;;;;;;;;;;;;;;;;;;1056008;27;4459;-57
2023/08/13 00:24:03;;;;;;;;;;;;;;;;;;1055358;28;2043;-53
2023/08/13 00:24:33;;;;;;;;;;;;;;;;;;1055776;27;4052;-56
2023/08/13 00:25:03;;;;;;;;;;;;;;;;;;1055339;27;2938;-56
2023/08/13 00:25:34;;;;;;;;;;;;;;;;;;1055870;28;3864;-55
2023/08/13 00:26:04;;;;;;;;;;;;;;;;;;1053240;28;3041;-56
2023/08/13 00:26:36;;;;;;;;;;;;;;;;;;1054697;27;3771;-54
2023/08/13 00:27:06;;;;;;;;;;;;;;;;;;1055060;28;2923;-56
2023/08/13 00:27:37;;;;;;;;;;;;;;;;;;1055643;28;4028;-52
2023/08/13 00:28:07;;;;;;;;;;;;;;;;;;1055599;28;2883;-55
2023/08/13 00:28:37;;;;;;;;;;;;;;;;;;1054591;28;4045;-56
2023/08/13 00:29:08;;;;;;;;;;;;;;;;;;1056117;28;1705;-55
2023/08/13 00:29:40;;;;;;;;;;;;;;;;;;1054425;28;3781;-54
2023/08/13 00:30:10;;;;;;;;;;;;;;;;;;1054978;28;2992;-56
2023/08/13 00:30:41;;;;;;;;;;;;;;;;;;1055193;28;3805;-56
2023/08/13 00:31:11;;;;;;;;;;;;;;;;;;1056581;28;1805;-53
2023/08/13 00:31:41;;;;;;;;;;;;;;;;;;1054091;28;4010;-54
2023/08/13 00:32:12;;;;;;;;;;;;;;;;;;1055429;28;2068;-56
2023/08/13 00:32:42;;;;;;;;;;;;;;;;;;1054182;28;3930;-56
2023/08/13 00:33:12;;;;;;;;;;;;;;;;;;1050790;28;3846;-57
2023/08/13 00:33:43;;;;;;;;;;;;;;;;;;1050422;28;2211;-56
2023/08/13 00:34:13;;;;;;;;;;;;;;;;;;1051295;28;4283;-56
2023/08/13 00:34:43;;;;;;;;;;;;;;;;;;1050467;28;1576;-54
2023/08/13 00:35:13;;;;;;;;;;;;;;;;;;1055383;28;4216;-54
2023/08/13 00:35:44;;;;;;;;;;;;;;;;;;1054737;28;3036;-57
2023/08/13 00:36:15;;;;;;;;;;;;;;;;;;1054695;28;3870;-57
2023/08/13 00:36:45;;;;;;;;;;;;;;;;;;1056218;28;1798;-54
2023/08/13 00:37:16;;;;;;;;;;;;;;;;;;1054865;28;3865;-54
2023/08/13 00:37:47;;;;;;;;;;;;;;;;;;1055097;28;3065;-52
2023/08/13 00:38:17;;;;;;;;;;;;;;;;;;1054657;28;3870;-58
2023/08/13 00:38:47;;;;;;;;;;;;;;;;;;1056353;28;1393;-55
2023/08/13 00:39:18;;;;;;;;;;;;;;;;;;1054447;28;3937;-56
2023/08/13 00:39:48;;;;;;;;;;;;;;;;;;1055445;27;2881;-55
2023/08/13 00:40:18;;;;;;;;;;;;;;;;;;1055107;28;4033;-56
2023/08/13 00:40:48;;;;;;;;;;;;;;;;;;1054999;28;3069;-55
2023/08/13 00:41:19;;;;;;;;;;;;;;;;;;1054435;28;4124;-53
2023/08/13 00:41:49;;;;;;;;;;;;;;;;;;1051515;28;3707;-56
2023/08/13 00:42:19;;;;;;;;;;;;;;;;;;1050914;28;4028;-55
2023/08/13 00:42:49;;;;;;;;;;;;;;;;;;1050915;28;2775;-56
2023/08/13 00:43:20;;;;;;;;;;;;;;;;;;1050897;28;4070;-55
2023/08/13 00:43:50;;;;;;;;;;;;;;;;;;1055304;28;2987;-55
2023/08/13 00:44:20;;;;;;;;;;;;;;;;;;1055479;28;4035;-57
2023/08/13 00:44:50;;;;;;;;;;;;;;;;;;1055462;28;1576;-57
2023/08/13 00:45:21;;;;;;;;;;;;;;;;;;1055451;28;4006;-53
2023/08/13 00:45:51;;;;;;;;;;;;;;;;;;1055491;28;2189;-55
2023/08/13 00:46:21;;;;;;;;;;;;;;;;;;1055965;28;4102;-56
2023/08/13 00:46:51;;;;;;;;;;;;;;;;;;1056226;27;2907;-55
2023/08/13 00:47:22;;;;;;;;;;;;;;;;;;1055868;28;3997;-56
2023/08/13 00:47:52;;;;;;;;;;;;;;;;;;1053723;28;3101;-53
2023/08/13 00:48:22;;;;;;;;;;;;;;;;;;1055701;28;4060;-55
2023/08/13 00:48:54;;;;;;;;;;;;;;;;;;1050830;28;1917;-57
2023/08/13 00:49:24;;;;;;;;;;;;;;;;;;1051212;28;3937;-53
2023/08/13 00:49:55;;;;;;;;;;;;;;;;;;1051129;28;1389;-56
2023/08/13 00:50:25;;;;;;;;;;;;;;;;;;1051506;28;3878;-52
2023/08/13 00:50:56;;;;;;;;;;;;;;;;;;1056459;28;1742;-56
2023/08/13 00:51:26;;;;;;;;;;;;;;;;;;1055323;28;3841;-58
2023/08/13 00:51:57;;;;;;;;;;;;;;;;;;1054876;28;3351;-56
2023/08/13 00:52:27;;;;;;;;;;;;;;;;;;1055115;28;3883;-56
2023/08/13 00:52:57;;;;;;;;;;;;;;;;;;1047046;28;1827;-56
2023/08/13 00:53:28;;;;;;;;;;;;;;;;;;1046515;28;4044;-55
2023/08/13 00:53:58;;;;;;;;;;;;;;;;;;1045693;28;3511;-57
2023/08/13 00:54:29;;;;;;;;;;;;;;;;;;1046943;28;4384;-57
2023/08/13 00:54:59;;;;;;;;;;;;;;;;;;1054685;28;3852;-56
2023/08/13 00:55:30;;;;;;;;;;;;;;;;;;1049182;28;3932;-54
2023/08/13 00:56:00;;;;;;;;;;;;;;;;;;1049891;28;3582;-57
2023/08/13 00:56:30;;;;;;;;;;;;;;;;;;1049187;28;4248;-54
2023/08/13 00:57:02;;;;;;;;;;;;;;;;;;1050794;28;3383;-57
2023/08/13 00:57:32;;;;;;;;;;;;;;;;;;1054450;28;4015;-56
2023/08/13 00:58:03;;;;;;;;;;;;;;;;;;1055036;28;3369;-57
2023/08/13 00:58:33;;;;;;;;;;;;;;;;;;1053793;28;4441;-55
2023/08/13 00:59:04;;;;;;;;;;;;;;;;;;1055222;28;3710;-55
2023/08/13 00:59:35;;;;;;;;;;;;;;;;;;1055101;28;4969;-56
2023/08/13 01:00:06;;;;;;;;;;;;;;;;;;1055328;28;3647;-58
2023/08/13 01:00:37;;;;;;;;;;;;;;;;;;1055507;28;3992;-51
2023/08/13 01:01:09;;;;;;;;;;;;;;;;;;1054331;28;3482;-54
2023/08/13 01:01:39;;;;;;;;;;;;;;;;;;1055061;28;5032;-56
2023/08/13 01:02:09;;;;;;;;;;;;;;;;;;1055321;28;1868;-56
2023/08/13 01:02:39;;;;;;;;;;;;;;;;;;1055345;28;4332;-57
2023/08/13 01:03:10;;;;;;;;;;;;;;;;;;1054011;28;3144;-56
2023/08/13 01:03:41;;;;;;;;;;;;;;;;;;1057054;28;3959;-55
2023/08/13 01:04:11;;;;;;;;;;;;;;;;;;1055162;28;3100;-54
2023/08/13 01:04:41;;;;;;;;;;;;;;;;;;1053590;28;4014;-58
2023/08/13 01:05:12;;;;;;;;;;;;;;;;;;1054832;28;3458;-57
2023/08/13 01:05:51;;;;;;;;;;;;;;;;;;1055613;28;3945;-55
2023/08/13 01:06:33;;;;;;;;;;;;;;;;;;1054709;28;4001;-56
2023/08/13 01:07:26;;;;;;;;;;;;;;;;;;1055308;28;3251;-55
2023/08/13 01:08:06;;;;;;;;;;;;;;;;;;1049532;28;3977;-56
2023/08/13 01:08:42;;;;;;;;;;;;;;;;;;1052958;28;4066;-52
2023/08/13 01:09:31;;;;;;;;;;;;;;;;;;1055038;28;4147;-54
2023/08/13 01:10:26;;;;;;;;;;;;;;;;;;1056160;28;3708;-53
2023/08/13 01:11:09;;;;;;;;;;;;;;;;;;1050996;28;3884;-54
2023/08/13 01:11:58;;;;;;;;;;;;;;;;;;1049992;28;3869;-54
2023/08/13 01:12:41;;;;;;;;;;;;;;;;;;1049975;28;3926;-56
2023/08/13 01:13:27;;;;;;;;;;;;;;;;;;1052063;28;1262;-55
2023/08/13 01:14:04;;;;;;;;;;;;;;;;;;1035438;28;3669;-57
2023/08/13 01:14:43;;;;;;;;;;;;;;;;;;1050062;28;4013;-54
2023/08/13 01:15:15;;;;;;;;;;;;;;;;;;1051353;28;3813;-55
2023/08/13 01:15:45;;;;;;;;;;;;;;;;;;1050273;28;3006;-57
2023/08/13 01:16:17;;;;;;;;;;;;;;;;;;1051364;27;4006;-55
2023/08/13 01:16:47;;;;;;;;;;;;;;;;;;1051308;28;1609;-57
2023/08/13 01:17:18;;;;;;;;;;;;;;;;;;1051351;28;4210;-54
2023/08/13 01:17:51;;;;;;;;;;;;;;;;;;1051422;28;1688;-55
2023/08/13 01:18:21;;;;;;;;;;;;;;;;;;1051568;28;4286;-57
2023/08/13 01:18:52;;;;;;;;;;;;;;;;;;1055248;28;1700;-56
2023/08/13 01:19:23;;;;;;;;;;;;;;;;;;1055542;28;4008;-56
2023/08/13 01:19:53;;;;;;;;;;;;;;;;;;1053465;28;3084;-57
2023/08/13 01:20:34;;;;;;;;;;;;;;;;;;1053495;28;3973;-55
2023/08/13 01:21:04;;;;;;;;;;;;;;;;;;1055208;28;1348;-56
2023/08/13 01:21:34;;;;;;;;;;;;;;;;;;1053630;27;3808;-57
2023/08/13 01:22:05;;;;;;;;;;;;;;;;;;1054767;28;3077;-54
2023/08/13 01:22:36;;;;;;;;;;;;;;;;;;1054755;27;4392;-55
2023/08/13 01:23:06;;;;;;;;;;;;;;;;;;1056054;28;1308;-56
2023/08/13 01:23:37;;;;;;;;;;;;;;;;;;1055088;27;3748;-58
2023/08/13 01:24:07;;;;;;;;;;;;;;;;;;1054102;28;3064;-56
2023/08/13 01:24:37;;;;;;;;;;;;;;;;;;1054629;28;3864;-54
2023/08/13 01:25:08;;;;;;;;;;;;;;;;;;1055990;28;1328;-57
2023/08/13 01:25:44;;;;;;;;;;;;;;;;;;1055112;28;3708;-57
2023/08/13 01:26:18;;;;;;;;;;;;;;;;;;1055304;27;4419;-54
2023/08/13 01:26:49;;;;;;;;;;;;;;;;;;1055710;28;1847;-57
2023/08/13 01:27:34;;;;;;;;;;;;;;;;;;1055509;28;4099;-55
2023/08/13 01:28:23;;;;;;;;;;;;;;;;;;1055191;28;1612;-56
2023/08/13 01:28:59;;;;;;;;;;;;;;;;;;1054514;28;3811;-57
2023/08/13 01:29:33;;;;;;;;;;;;;;;;;;1055456;28;4340;-57
2023/08/13 01:30:06;;;;;;;;;;;;;;;;;;1054579;28;2711;-58
2023/08/13 01:30:47;;;;;;;;;;;;;;;;;;1055321;28;3933;-52
2023/08/13 01:31:25;;;;;;;;;;;;;;;;;;1050333;28;4076;-53
2023/08/13 01:31:57;;;;;;;;;;;;;;;;;;1049964;28;1689;-52
2023/08/13 01:32:31;;;;;;;;;;;;;;;;;;1049882;28;3950;-54
2023/08/13 01:33:02;;;;;;;;;;;;;;;;;;1052975;28;1698;-57
2023/08/13 01:33:33;;;;;;;;;;;;;;;;;;1053905;28;4144;-56
2023/08/13 01:34:04;;;;;;;;;;;;;;;;;;1053532;28;2893;-55
2023/08/13 01:34:35;;;;;;;;;;;;;;;;;;1055320;28;3896;-55
2023/08/13 01:35:07;;;;;;;;;;;;;;;;;;1055142;28;1763;-55
2023/08/13 01:35:38;;;;;;;;;;;;;;;;;;1054999;28;3867;-57
2023/08/13 01:36:09;;;;;;;;;;;;;;;;;;1054901;28;2971;-55
2023/08/13 01:36:39;;;;;;;;;;;;;;;;;;1055419;28;3860;-53
2023/08/13 01:37:10;;;;;;;;;;;;;;;;;;1054658;28;3081;-55
2023/08/13 01:37:41;;;;;;;;;;;;;;;;;;1054033;28;3874;-54
2023/08/13 01:38:11;;;;;;;;;;;;;;;;;;1056177;28;1698;-56
2023/08/13 01:38:42;;;;;;;;;;;;;;;;;;1054096;28;3714;-55
2023/08/13 01:39:12;;;;;;;;;;;;;;;;;;1056007;28;1359;-54
2023/08/13 01:39:42;;;;;;;;;;;;;;;;;;1054513;28;3921;-53
2023/08/13 01:40:13;;;;;;;;;;;;;;;;;;1055403;28;3771;-53
2023/08/13 01:40:43;;;;;;;;;;;;;;;;;;1052964;28;3261;-54
2023/08/13 01:41:13;;;;;;;;;;;;;;;;;;1053809;28;3788;-53
2023/08/13 01:41:49;;;;;;;;;;;;;;;;;;1054840;28;1804;-56
2023/08/13 01:42:20;;;;;;;;;;;;;;;;;;1054912;28;3916;-54
2023/08/13 01:42:50;;;;;;;;;;;;;;;;;;1050879;28;3351;-55
2023/08/13 01:43:20;;;;;;;;;;;;;;;;;;1052087;28;4250;-55
2023/08/13 01:43:50;;;;;;;;;;;;;;;;;;1051553;28;1396;-58
2023/08/13 01:44:21;;;;;;;;;;;;;;;;;;1051553;28;3761;-57
2023/08/13 01:44:51;;;;;;;;;;;;;;;;;;1056158;28;1795;-56
2023/08/13 01:45:21;;;;;;;;;;;;;;;;;;1054152;28;3925;-53
2023/08/13 01:45:52;;;;;;;;;;;;;;;;;;1054465;28;3460;-57
2023/08/13 01:46:22;;;;;;;;;;;;;;;;;;1053655;28;4152;-56
2023/08/13 01:46:53;;;;;;;;;;;;;;;;;;1055448;28;3332;-54
2023/08/13 01:47:23;;;;;;;;;;;;;;;;;;1055651;28;4082;-58
2023/08/13 01:47:53;;;;;;;;;;;;;;;;;;1055222;28;3347;-55
2023/08/13 01:48:23;;;;;;;;;;;;;;;;;;1055992;28;4027;-55
2023/08/13 01:48:54;;;;;;;;;;;;;;;;;;1056467;28;1763;-54
2023/08/13 01:49:24;;;;;;;;;;;;;;;;;;1055671;28;4396;-58
2023/08/13 01:49:54;;;;;;;;;;;;;;;;;;1055950;28;3270;-53
2023/08/13 01:50:25;;;;;;;;;;;;;;;;;;1055866;28;3894;-56
2023/08/13 01:50:56;;;;;;;;;;;;;;;;;;1057297;27;3173;-56
2023/08/13 01:51:26;;;;;;;;;;;;;;;;;;1055544;27;4017;-55
2023/08/13 01:51:56;;;;;;;;;;;;;;;;;;1056870;28;1515;-54
2023/08/13 01:52:26;;;;;;;;;;;;;;;;;;1055192;28;4911;-55
2023/08/13 01:52:57;;;;;;;;;;;;;;;;;;1056441;28;3221;-55
2023/08/13 01:53:27;;;;;;;;;;;;;;;;;;1056203;28;3958;-57
2023/08/13 01:53:57;;;;;;;;;;;;;;;;;;1055578;28;3427;-57
2023/08/13 01:54:27;;;;;;;;;;;;;;;;;;1055884;27;4406;-56
2023/08/13 01:54:58;;;;;;;;;;;;;;;;;;1051649;28;1392;-53
2023/08/13 01:55:28;;;;;;;;;;;;;;;;;;1051540;28;3988;-54
2023/08/13 01:55:58;;;;;;;;;;;;;;;;;;1051423;28;2442;-55
2023/08/13 01:56:29;;;;;;;;;;;;;;;;;;1050435;28;4032;-56
2023/08/13 01:56:59;;;;;;;;;;;;;;;;;;1056153;28;1419;-54
2023/08/13 01:57:29;;;;;;;;;;;;;;;;;;1056185;28;4227;-56
2023/08/13 01:57:59;;;;;;;;;;;;;;;;;;1056518;28;1745;-58
2023/08/13 01:58:30;;;;;;;;;;;;;;;;;;1056643;28;4500;-57
2023/08/13 01:59:00;;;;;;;;;;;;;;;;;;1056013;28;2034;-56
2023/08/13 01:59:30;;;;;;;;;;;;;;;;;;1056474;28;3753;-57
2023/08/13 02:00:01;;;;;;;;;;;;;;;;;;1056085;28;2003;-57
2023/08/13 02:00:31;;;;;;;;;;;;;;;;;;1056404;28;3778;-58
2023/08/13 02:01:01;;;;;;;;;;;;;;;;;;1056902;28;1362;-58
2023/08/13 02:01:31;;;;;;;;;;;;;;;;;;1055748;28;4046;-56
2023/08/13 02:02:02;;;;;;;;;;;;;;;;;;1055567;27;2816;-57
2023/08/13 02:02:33;;;;;;;;;;;;;;;;;;1055629;28;4449;-53
2023/08/13 02:03:04;;;;;;;;;;;;;;;;;;1056617;28;1439;-55
2023/08/13 02:03:34;;;;;;;;;;;;;;;;;;1055611;28;4521;-54
2023/08/13 02:04:04;;;;;;;;;;;;;;;;;;1057018;28;1651;-55
2023/08/13 02:04:35;;;;;;;;;;;;;;;;;;1055382;28;4033;-55
2023/08/13 02:05:05;;;;;;;;;;;;;;;;;;1056050;28;3323;-56
2023/08/13 02:05:35;;;;;;;;;;;;;;;;;;1055089;28;4226;-57
2023/08/13 02:06:05;;;;;;;;;;;;;;;;;;1056800;28;3659;-56
2023/08/13 02:06:36;;;;;;;;;;;;;;;;;;1055309;28;4531;-54
2023/08/13 02:07:06;;;;;;;;;;;;;;;;;;1056951;28;1426;-56
2023/08/13 02:07:36;;;;;;;;;;;;;;;;;;1054265;28;3867;-54
2023/08/13 02:08:07;;;;;;;;;;;;;;;;;;1055903;28;2928;-53
2023/08/13 02:08:37;;;;;;;;;;;;;;;;;;1056217;28;4076;-55
2023/08/13 02:09:07;;;;;;;;;;;;;;;;;;1056147;28;1740;-56
2023/08/13 02:09:37;;;;;;;;;;;;;;;;;;1055191;28;4046;-56
2023/08/13 02:10:08;;;;;;;;;;;;;;;;;;1056007;28;2007;-56
2023/08/13 02:10:38;;;;;;;;;;;;;;;;;;1056206;28;3943;-54
2023/08/13 02:11:08;;;;;;;;;;;;;;;;;;1055464;28;3511;-54
2023/08/13 02:11:39;;;;;;;;;;;;;;;;;;1057186;27;3882;-54
2023/08/13 02:12:09;;;;;;;;;;;;;;;;;;1055192;28;3468;-54
2023/08/13 02:12:39;;;;;;;;;;;;;;;;;;1056058;28;3841;-55
2023/08/13 02:13:09;;;;;;;;;;;;;;;;;;1056229;28;1698;-58
2023/08/13 02:13:40;;;;;;;;;;;;;;;;;;1056417;28;4103;-57
2023/08/13 02:14:10;;;;;;;;;;;;;;;;;;1054861;28;3357;-56
2023/08/13 02:14:40;;;;;;;;;;;;;;;;;;1056028;28;3901;-56
2023/08/13 02:15:11;;;;;;;;;;;;;;;;;;1055979;28;1447;-54
2023/08/13 02:15:41;;;;;;;;;;;;;;;;;;1055279;28;3786;-52
2023/08/13 02:16:11;;;;;;;;;;;;;;;;;;1056269;28;3320;-55
2023/08/13 02:16:41;;;;;;;;;;;;;;;;;;1055432;28;3887;-56
2023/08/13 02:17:14;;;;;;;;;;;;;;;;;;1053540;28;3082;-55
2023/08/13 02:17:44;;;;;;;;;;;;;;;;;;1049811;28;3941;-56
2023/08/13 02:18:15;;;;;;;;;;;;;;;;;;1050266;28;3865;-56
2023/08/13 02:18:45;;;;;;;;;;;;;;;;;;1051705;28;1714;-57
2023/08/13 02:19:15;;;;;;;;;;;;;;;;;;1049816;28;4168;-57
2023/08/13 02:19:46;;;;;;;;;;;;;;;;;;1051138;28;3410;-57
2023/08/13 02:20:16;;;;;;;;;;;;;;;;;;1050829;28;4047;-55
2023/08/13 02:20:46;;;;;;;;;;;;;;;;;;1051122;28;3102;-58
2023/08/13 02:21:18;;;;;;;;;;;;;;;;;;1051940;28;4053;-56
2023/08/13 02:21:48;;;;;;;;;;;;;;;;;;1051259;28;3540;-55
2023/08/13 02:22:18;;;;;;;;;;;;;;;;;;1052074;28;4059;-55
2023/08/13 02:22:48;;;;;;;;;;;;;;;;;;1055961;28;2766;-56
2023/08/13 02:23:19;;;;;;;;;;;;;;;;;;1054192;28;4155;-54
2023/08/13 02:23:49;;;;;;;;;;;;;;;;;;1056735;28;1656;-55
2023/08/13 02:24:19;;;;;;;;;;;;;;;;;;1054555;28;4035;-55
2023/08/13 02:24:49;;;;;;;;;;;;;;;;;;1055233;28;3271;-53
2023/08/13 02:25:20;;;;;;;;;;;;;;;;;;1049476;28;4070;-54
2023/08/13 02:25:51;;;;;;;;;;;;;;;;;;1050497;28;1275;-53
2023/08/13 02:26:22;;;;;;;;;;;;;;;;;;1051017;28;4360;-57
2023/08/13 02:26:52;;;;;;;;;;;;;;;;;;1052421;28;1612;-55
2023/08/13 02:27:22;;;;;;;;;;;;;;;;;;1054113;28;4055;-55
2023/08/13 02:27:53;;;;;;;;;;;;;;;;;;1056607;28;3411;-53
2023/08/13 02:28:23;;;;;;;;;;;;;;;;;;1056275;28;3783;-52
2023/08/13 02:28:53;;;;;;;;;;;;;;;;;;1055804;28;1862;-54
2023/08/13 02:29:23;;;;;;;;;;;;;;;;;;1054895;28;4055;-56
2023/08/13 02:29:54;;;;;;;;;;;;;;;;;;1056079;28;1735;-55
2023/08/13 02:30:24;;;;;;;;;;;;;;;;;;1054466;28;4089;-57
2023/08/13 02:30:54;;;;;;;;;;;;;;;;;;1054905;28;3485;-56
2023/08/13 02:31:24;;;;;;;;;;;;;;;;;;1055189;28;4068;-57
2023/08/13 02:31:55;;;;;;;;;;;;;;;;;;1054008;28;3427;-53
2023/08/13 02:32:25;;;;;;;;;;;;;;;;;;1055310;28;3948;-55
2023/08/13 02:32:55;;;;;;;;;;;;;;;;;;1054383;28;3040;-52
2023/08/13 02:33:25;;;;;;;;;;;;;;;;;;1055119;28;4228;-54
2023/08/13 02:33:56;;;;;;;;;;;;;;;;;;1056295;27;1885;-56
2023/08/13 02:34:26;;;;;;;;;;;;;;;;;;1055505;28;3977;-56
2023/08/13 02:34:56;;;;;;;;;;;;;;;;;;1054837;28;3095;-55
2023/08/13 02:35:26;;;;;;;;;;;;;;;;;;1055352;28;4091;-56
2023/08/13 02:35:57;;;;;;;;;;;;;;;;;;1053803;28;3000;-51
2023/08/13 02:36:27;;;;;;;;;;;;;;;;;;1056345;28;3851;-55
2023/08/13 02:36:57;;;;;;;;;;;;;;;;;;1055965;28;1825;-54
2023/08/13 02:37:27;;;;;;;;;;;;;;;;;;1051901;28;3874;-54
2023/08/13 02:37:58;;;;;;;;;;;;;;;;;;1050898;28;3336;-56
2023/08/13 02:38:28;;;;;;;;;;;;;;;;;;1050267;28;3788;-57
2023/08/13 02:38:58;;;;;;;;;;;;;;;;;;1051250;28;3083;-56
2023/08/13 02:39:28;;;;;;;;;;;;;;;;;;1051694;28;3963;-56
2023/08/13 02:39:59;;;;;;;;;;;;;;;;;;1052052;28;2394;-54
2023/08/13 02:40:29;;;;;;;;;;;;;;;;;;1051586;28;4025;-57
2023/08/13 02:40:59;;;;;;;;;;;;;;;;;;1051905;28;3632;-51
2023/08/13 02:41:30;;;;;;;;;;;;;;;;;;1050234;28;3944;-57
2023/08/13 02:42:00;;;;;;;;;;;;;;;;;;1051149;28;2934;-54
2023/08/13 02:42:30;;;;;;;;;;;;;;;;;;1050919;28;3963;-54
2023/08/13 02:43:01;;;;;;;;;;;;;;;;;;1050810;28;3643;-56
2023/08/13 02:43:33;;;;;;;;;;;;;;;;;;1050729;28;3776;-58
2023/08/13 02:44:03;;;;;;;;;;;;;;;;;;1052332;28;1456;-55
2023/08/13 02:44:33;;;;;;;;;;;;;;;;;;1051276;28;3741;-57
2023/08/13 02:45:04;;;;;;;;;;;;;;;;;;1050220;28;2904;-56
2023/08/13 02:45:34;;;;;;;;;;;;;;;;;;1050670;28;4258;-53
2023/08/13 02:46:04;;;;;;;;;;;;;;;;;;1052314;28;1909;-55
2023/08/13 02:46:35;;;;;;;;;;;;;;;;;;1051860;28;3841;-55
2023/08/13 02:47:05;;;;;;;;;;;;;;;;;;1051196;28;2916;-57
2023/08/13 02:47:35;;;;;;;;;;;;;;;;;;1051752;28;4033;-53
2023/08/13 02:48:05;;;;;;;;;;;;;;;;;;1053060;28;1896;-56
2023/08/13 02:48:36;;;;;;;;;;;;;;;;;;1050701;28;3989;-57
2023/08/13 02:49:06;;;;;;;;;;;;;;;;;;1050744;28;3512;-56
2023/08/13 02:49:36;;;;;;;;;;;;;;;;;;1049953;28;3960;-53
2023/08/13 02:50:07;;;;;;;;;;;;;;;;;;1051904;28;1752;-55
2023/08/13 02:50:37;;;;;;;;;;;;;;;;;;1051425;28;3936;-57
2023/08/13 02:51:07;;;;;;;;;;;;;;;;;;1050929;28;3480;-56
2023/08/13 02:51:37;;;;;;;;;;;;;;;;;;1050097;28;3936;-57
2023/08/13 02:52:08;;;;;;;;;;;;;;;;;;1052604;28;1929;-56
2023/08/13 02:52:38;;;;;;;;;;;;;;;;;;1050669;28;3759;-52
2023/08/13 02:53:08;;;;;;;;;;;;;;;;;;1050152;28;3489;-56
2023/08/13 02:53:38;;;;;;;;;;;;;;;;;;1050445;28;3853;-56
2023/08/13 02:54:09;;;;;;;;;;;;;;;;;;1050791;28;3499;-57
2023/08/13 02:54:39;;;;;;;;;;;;;;;;;;1051243;28;4828;-56
2023/08/13 02:55:09;;;;;;;;;;;;;;;;;;1051510;28;3496;-57
2023/08/13 02:55:39;;;;;;;;;;;;;;;;;;1050743;28;4036;-55
2023/08/13 02:56:10;;;;;;;;;;;;;;;;;;1051165;28;3875;-58
2023/08/13 02:56:40;;;;;;;;;;;;;;;;;;1050984;28;4368;-52
2023/08/13 02:57:11;;;;;;;;;;;;;;;;;;1050912;28;3308;-58
2023/08/13 02:57:41;;;;;;;;;;;;;;;;;;1050013;28;3897;-54
2023/08/13 02:58:11;;;;;;;;;;;;;;;;;;1051119;28;3290;-57
2023/08/13 02:58:42;;;;;;;;;;;;;;;;;;1048246;28;4056;-57
2023/08/13 02:59:12;;;;;;;;;;;;;;;;;;1051396;28;1640;-55
2023/08/13 02:59:42;;;;;;;;;;;;;;;;;;1054730;28;3850;-54
2023/08/13 03:00:13;;;;;;;;;;;;;;;;;;1054871;28;3868;-54
2023/08/13 03:00:43;;;;;;;;;;;;;;;;;;1054934;27;3034;-56
2023/08/13 03:01:13;;;;;;;;;;;;;;;;;;1053519;28;4066;-58
2023/08/13 03:01:45;;;;;;;;;;;;;;;;;;1055306;28;3055;-56
2023/08/13 03:02:16;;;;;;;;;;;;;;;;;;1055181;27;3795;-54
2023/08/13 03:02:47;;;;;;;;;;;;;;;;;;1055297;28;3342;-54
2023/08/13 03:03:17;;;;;;;;;;;;;;;;;;1054240;28;4078;-55
2023/08/13 03:03:49;;;;;;;;;;;;;;;;;;1054491;28;2848;-56
2023/08/13 03:04:19;;;;;;;;;;;;;;;;;;1054868;27;3964;-57
2023/08/13 03:04:49;;;;;;;;;;;;;;;;;;1056577;28;1681;-56
2023/08/13 03:05:19;;;;;;;;;;;;;;;;;;1055081;27;4044;-57
2023/08/13 03:05:50;;;;;;;;;;;;;;;;;;1055561;28;3341;-55
2023/08/13 03:06:20;;;;;;;;;;;;;;;;;;1053602;27;4111;-57
2023/08/13 03:06:51;;;;;;;;;;;;;;;;;;1054484;28;3162;-56
2023/08/13 03:07:21;;;;;;;;;;;;;;;;;;1055427;28;3942;-56
2023/08/13 03:07:51;;;;;;;;;;;;;;;;;;1056706;28;1652;-56
2023/08/13 03:08:21;;;;;;;;;;;;;;;;;;1054132;27;4054;-54
2023/08/13 03:08:52;;;;;;;;;;;;;;;;;;1050631;28;3349;-54
2023/08/13 03:09:22;;;;;;;;;;;;;;;;;;1051171;28;3904;-57
2023/08/13 03:09:53;;;;;;;;;;;;;;;;;;1050908;28;3003;-55
2023/08/13 03:10:23;;;;;;;;;;;;;;;;;;1050781;28;4372;-54
2023/08/13 03:10:53;;;;;;;;;;;;;;;;;;1054880;28;2673;-54
2023/08/13 03:11:24;;;;;;;;;;;;;;;;;;1055361;28;4234;-57
2023/08/13 03:11:54;;;;;;;;;;;;;;;;;;1051315;28;1703;-54
2023/08/13 03:12:25;;;;;;;;;;;;;;;;;;1050916;28;3959;-57
2023/08/13 03:12:55;;;;;;;;;;;;;;;;;;1051311;28;2413;-56
2023/08/13 03:13:25;;;;;;;;;;;;;;;;;;1051676;28;4092;-56
2023/08/13 03:13:55;;;;;;;;;;;;;;;;;;1055916;28;1722;-53
2023/08/13 03:14:26;;;;;;;;;;;;;;;;;;1055869;27;4008;-57
2023/08/13 03:14:56;;;;;;;;;;;;;;;;;;1054543;28;3299;-56
2023/08/13 03:15:26;;;;;;;;;;;;;;;;;;1053959;28;4419;-54
2023/08/13 03:15:56;;;;;;;;;;;;;;;;;;1055706;28;1840;-56
2023/08/13 03:16:27;;;;;;;;;;;;;;;;;;1055925;27;3936;-55
2023/08/13 03:16:57;;;;;;;;;;;;;;;;;;1055797;28;1939;-56
2023/08/13 03:17:27;;;;;;;;;;;;;;;;;;1055057;27;4034;-56
2023/08/13 03:17:57;;;;;;;;;;;;;;;;;;1055815;28;3747;-55
2023/08/13 03:18:28;;;;;;;;;;;;;;;;;;1054868;27;3988;-58
2023/08/13 03:18:58;;;;;;;;;;;;;;;;;;1056454;28;1719;-52
2023/08/13 03:19:29;;;;;;;;;;;;;;;;;;1053239;28;4059;-56
2023/08/13 03:19:59;;;;;;;;;;;;;;;;;;1054886;28;3140;-54
2023/08/13 03:20:29;;;;;;;;;;;;;;;;;;1053838;28;4128;-56
2023/08/13 03:20:59;;;;;;;;;;;;;;;;;;1055736;28;3729;-53
2023/08/13 03:21:30;;;;;;;;;;;;;;;;;;1053788;28;3799;-54
2023/08/13 03:22:00;;;;;;;;;;;;;;;;;;1056494;28;1699;-56
2023/08/13 03:22:30;;;;;;;;;;;;;;;;;;1052475;28;4137;-53
2023/08/13 03:23:01;;;;;;;;;;;;;;;;;;1050946;28;3504;-56
2023/08/13 03:23:32;;;;;;;;;;;;;;;;;;1049839;28;4111;-55
2023/08/13 03:24:02;;;;;;;;;;;;;;;;;;1051648;28;3094;-55
2023/08/13 03:24:33;;;;;;;;;;;;;;;;;;1050806;28;3906;-56
2023/08/13 03:25:03;;;;;;;;;;;;;;;;;;1055453;28;3303;-55
2023/08/13 03:25:33;;;;;;;;;;;;;;;;;;1054107;28;4148;-53
2023/08/13 03:26:04;;;;;;;;;;;;;;;;;;1057315;27;3076;-51
2023/08/13 03:26:34;;;;;;;;;;;;;;;;;;1054509;27;3969;-54
2023/08/13 03:27:04;;;;;;;;;;;;;;;;;;1056279;28;2657;-54
2023/08/13 03:27:34;;;;;;;;;;;;;;;;;;1055162;27;4410;-59
2023/08/13 03:28:05;;;;;;;;;;;;;;;;;;1056791;28;1348;-55
2023/08/13 03:28:35;;;;;;;;;;;;;;;;;;1053977;28;3972;-54
2023/08/13 03:29:05;;;;;;;;;;;;;;;;;;1055792;28;3780;-56
2023/08/13 03:29:35;;;;;;;;;;;;;;;;;;1055773;27;3819;-56
2023/08/13 03:30:06;;;;;;;;;;;;;;;;;;1054639;28;3312;-57
2023/08/13 03:30:36;;;;;;;;;;;;;;;;;;1054910;28;4087;-55
2023/08/13 03:31:06;;;;;;;;;;;;;;;;;;1055725;28;3330;-54
2023/08/13 03:31:38;;;;;;;;;;;;;;;;;;1055371;28;3792;-57
2023/08/13 03:32:08;;;;;;;;;;;;;;;;;;1055580;28;3062;-57
2023/08/13 03:32:39;;;;;;;;;;;;;;;;;;1055779;28;3747;-58
2023/08/13 03:33:09;;;;;;;;;;;;;;;;;;1055628;28;1707;-53
2023/08/13 03:33:39;;;;;;;;;;;;;;;;;;1055812;28;3971;-57
2023/08/13 03:34:09;;;;;;;;;;;;;;;;;;1054976;28;2519;-56
2023/08/13 03:34:40;;;;;;;;;;;;;;;;;;1054116;28;4012;-56
2023/08/13 03:35:11;;;;;;;;;;;;;;;;;;1055380;28;3009;-56
2023/08/13 03:35:41;;;;;;;;;;;;;;;;;;1053700;28;3869;-55
2023/08/13 03:36:11;;;;;;;;;;;;;;;;;;1055681;28;3074;-52